Terminal Aerodrome Forecast
Issued by NWS

Home | Current Version | Previous Version | Text Only | Print | Product List | Glossary On
Versions: 1 2 3 4 5 6 7 8 9 10 11 12 13 14 15 16 17 18 19
467
FTAK31 PAJN 031140
TAFASI
TAF
PASI 031140Z 0312/0412 VRB03KT P6SM VCSH BKN040
     FM031500 31003KT P6SM SCT040 BKN080
     FM031900 27006KT P6SM SCT070
     FM040400 12005KT P6SM VCSH SCT035 BKN060
     FM040900 VRB03KT P6SM -SHRA OVC050=

USA.gov is the U.S. government's official web portal to all federal, state and local government web resources and services.